Danese, WV (25831)

10:14 PM EST on February 05, 2016 (GMT -0500)
Wren Lane | | Change Station
CLOSE
Current Station
Personal Weather Station
Location: Rainelle, WV
Elevation: 2405 ft
Nearby Weather Stations

Elev 2405 ft 38.04 °N, 80.92 °W | Updated 7 minutes ago

Clear
Clear
23.9 °F
Feels Like 24 °F
N
0.0
Wind Variable Wind from SSW

Today
High -- | Low -- °F
--% Chance of Precip.
Yesterday
High -- | Low -- °F
Precip. -- in
Pressure 30.45 in
Visibility 10.0 miles
Clouds Clear
Windchill 24 °F
Dew Point 21 °F
Humidity 89%
Rainfall 0.00 in
Snow Depth Not available.
7:24 AM 5:50 PM
Waning Crescent, 8% visible
METAR KBKW 060251Z AUTO 17005KT 10SM CLR M04/M10 A3032 RMK AO2 SLP309 T10441100 56004
Pressure 30.45 in
Visibility 10.0 miles
Clouds Clear
Windchill 24 °F
Dew Point 21 °F
Humidity 89%
Rainfall 0.00 in
Snow Depth Not available.
7:24 AM 5:50 PM
Waning Crescent, 8% visible
METAR KBKW 060251Z AUTO 17005KT 10SM CLR M04/M10 A3032 RMK AO2 SLP309 T10441100 56004

10-Day Weather Forecast

Almanac

Astronomy

Feb. 05, 2016 Rise Set
Actual Time
Civil Twilight
Nautical Twilight
Astronomical Twilight
Moon
Length of Visible Light
Length of Day
Tomorrow will be .
, % of the Moon is Illuminated

Today's Extremes

State Highs State Lows

Community

WunderPhotos

Upload Photos

1,890,915 photos uploaded!

WunderBlog® & News

Nearby

Air Quality

  Air Quality AQ Index Pollutant
Not available.

Snow Depth

Station Depth Elevation

Earthquake Activity

City Distance Mag. Time & Date
Minimum magnitude displayed is 2.5.

Coastal Water Temperatures

Place Temperature

Stations

Nearby Weather Stations

Station Location Temp. Windchill Dew Point Humidity Wind Precip. Elev Updated Type
                   

Watches & Warnings

There are currently no watches in effect.